createdAt,value
2023-08-20T00:01:26.487Z,7.22
2023-08-20T00:06:34.868Z,7.00
2023-08-20T00:09:01.278Z,7.07
2023-08-20T00:11:27.986Z,7.78
2023-08-20T00:14:19.668Z,7.38
2023-08-20T00:16:55.026Z,7.07
2023-08-20T00:19:29.835Z,7.15
2023-08-20T00:24:58.715Z,6.60
2023-08-20T00:27:31.731Z,6.30
2023-08-20T00:30:06.860Z,7.22
2023-08-20T00:33:05.739Z,7.03
2023-08-20T00:35:35.359Z,7.60
2023-08-20T00:38:20.902Z,6.45
2023-08-20T00:41:16.951Z,7.13
2023-08-20T00:43:58.471Z,7.10
2023-08-20T00:46:33.501Z,6.45
2023-08-20T00:49:03.043Z,7.15
2023-08-20T00:51:49.753Z,7.55
2023-08-20T00:57:18.615Z,7.15
2023-08-20T01:00:11.903Z,6.65
2023-08-20T01:03:18.914Z,6.93
2023-08-20T01:06:14.327Z,7.25
2023-08-20T01:08:52.032Z,6.55
2023-08-20T01:11:42.193Z,6.95
2023-08-20T01:14:20.359Z,7.07
2023-08-20T01:16:53.627Z,6.82
2023-08-20T01:19:22.049Z,6.90
2023-08-20T01:22:06.477Z,7.82
2023-08-20T01:24:56.085Z,6.78
2023-08-20T01:27:49.517Z,6.78
2023-08-20T01:30:16.301Z,6.93
2023-08-20T01:32:44.059Z,6.70
2023-08-20T01:35:17.140Z,6.55
2023-08-20T01:37:45.257Z,7.18
2023-08-20T01:40:13.146Z,7.18
2023-08-20T01:42:42.274Z,6.95
2023-08-20T01:45:10.352Z,6.75
2023-08-20T01:47:38.162Z,6.65
2023-08-20T01:50:07.638Z,7.05
2023-08-20T01:52:35.357Z,6.95
2023-08-20T01:55:03.712Z,7.57
2023-08-20T01:57:31.888Z,7.50
2023-08-20T02:00:00.057Z,7.00
2023-08-20T02:02:27.070Z,6.70
2023-08-20T02:05:08.067Z,7.15
2023-08-20T02:07:55.127Z,7.45
2023-08-20T02:10:29.635Z,6.68
2023-08-20T02:12:56.229Z,6.85
2023-08-20T02:15:27.540Z,6.75
2023-08-20T02:17:58.620Z,7.03
2023-08-20T02:20:27.927Z,6.75
2023-08-20T02:23:17.014Z,6.53
2023-08-20T02:28:46.299Z,7.50
2023-08-20T02:31:22.722Z,6.85
2023-08-20T02:33:56.668Z,7.30
2023-08-20T02:36:33.253Z,7.10
2023-08-20T02:39:05.336Z,7.80
2023-08-20T02:41:34.962Z,7.15
2023-08-20T02:44:04.322Z,7.93
2023-08-20T02:46:30.842Z,7.43
2023-08-20T02:48:57.372Z,8.30
2023-08-20T02:51:23.702Z,7.60
2023-08-20T02:53:50.353Z,7.97
2023-08-20T02:56:16.734Z,7.75
2023-08-20T02:58:43.116Z,7.68
2023-08-20T03:01:19.324Z,7.82
2023-08-20T03:03:45.719Z,7.38
2023-08-20T03:06:12.031Z,7.55
2023-08-20T03:08:38.428Z,7.97
2023-08-20T03:11:04.768Z,8.45
2023-08-20T03:13:31.152Z,7.82
2023-08-20T03:15:57.522Z,8.43
2023-08-20T03:18:24.021Z,8.25
2023-08-20T03:20:50.400Z,8.23
2023-08-20T03:23:16.739Z,7.80
2023-08-20T03:25:43.094Z,8.25
2023-08-20T03:28:09.626Z,7.75
2023-08-20T03:30:37.409Z,7.88
2023-08-20T03:35:44.203Z,8.27
2023-08-20T03:38:27.114Z,7.28
2023-08-20T03:40:55.709Z,7.75
2023-08-20T03:43:38.259Z,7.57
2023-08-20T03:46:07.854Z,7.93
2023-08-20T03:48:37.228Z,7.32
2023-08-20T03:51:17.252Z,8.35
2023-08-20T03:56:56.169Z,8.18
2023-08-20T03:59:31.436Z,8.35
2023-08-20T04:02:02.506Z,8.55
2023-08-20T04:04:29.141Z,7.60
2023-08-20T04:06:55.870Z,7.85
2023-08-20T04:09:22.656Z,8.68
2023-08-20T04:11:49.127Z,8.40
2023-08-20T04:14:15.469Z,9.43
2023-08-20T04:16:42.919Z,8.90
2023-08-20T04:19:09.392Z,8.90
2023-08-20T04:21:35.719Z,9.20
2023-08-20T04:24:02.058Z,8.75
2023-08-20T04:26:28.447Z,9.20
2023-08-20T04:28:54.802Z,9.68
2023-08-20T04:31:21.187Z,9.65
2023-08-20T04:33:47.574Z,10.15
2023-08-20T04:36:13.903Z,9.95
2023-08-20T04:38:40.222Z,9.02
2023-08-20T04:41:06.558Z,9.65
2023-08-20T04:43:33.028Z,9.55
2023-08-20T04:45:59.378Z,9.73
2023-08-20T04:48:25.741Z,10.45
2023-08-20T04:50:52.084Z,9.35
2023-08-20T04:53:18.740Z,9.15
2023-08-20T04:55:45.082Z,9.35
2023-08-20T04:58:11.419Z,10.55
2023-08-20T05:00:37.783Z,9.75
2023-08-20T05:03:04.463Z,10.40
2023-08-20T05:05:30.845Z,9.55
2023-08-20T05:07:57.405Z,9.75
2023-08-20T05:10:23.766Z,8.98
2023-08-20T05:12:50.112Z,9.32
2023-08-20T05:15:16.629Z,9.75
2023-08-20T05:17:42.999Z,9.40
2023-08-20T05:20:10.796Z,8.82
2023-08-20T05:22:37.341Z,8.68
2023-08-20T05:25:04.069Z,9.25
2023-08-20T05:27:30.467Z,8.85
2023-08-20T05:29:56.806Z,8.90
2023-08-20T05:32:23.506Z,9.38
2023-08-20T05:34:49.842Z,8.88
2023-08-20T05:37:16.213Z,8.50
2023-08-20T05:39:44.410Z,9.13
2023-08-20T05:42:11.085Z,9.07
2023-08-20T05:44:37.602Z,9.43
2023-08-20T05:47:06.331Z,8.77
2023-08-20T05:49:33.399Z,9.77
2023-08-20T05:51:59.746Z,9.00
2023-08-20T05:54:26.181Z,8.90
2023-08-20T05:56:52.535Z,9.38
2023-08-20T05:59:18.861Z,8.63
2023-08-20T06:01:45.258Z,9.65
2023-08-20T06:04:11.653Z,9.85
2023-08-20T06:06:38.124Z,9.70
2023-08-20T06:09:08.958Z,9.10
2023-08-20T06:11:35.800Z,11.02
2023-08-20T06:14:35.039Z,9.98
2023-08-20T06:17:04.540Z,8.93
2023-08-20T06:20:01.419Z,9.57
2023-08-20T06:22:32.873Z,9.57
2023-08-20T06:25:13.781Z,9.55
2023-08-20T06:27:50.046Z,9.10
2023-08-20T06:30:27.166Z,9.30
2023-08-20T06:33:28.708Z,9.40
2023-08-20T06:36:00.121Z,9.52
2023-08-20T06:38:28.660Z,9.20
2023-08-20T06:41:09.459Z,9.05
2023-08-20T06:43:48.007Z,9.05
2023-08-20T06:46:16.983Z,9.20
2023-08-20T06:48:45.851Z,9.05
2023-08-20T06:51:32.449Z,8.77
2023-08-20T06:54:04.320Z,8.38
2023-08-20T06:56:31.099Z,8.77
2023-08-20T06:58:57.757Z,9.00
2023-08-20T07:01:30.365Z,9.10
2023-08-20T07:04:05.273Z,8.80
2023-08-20T07:06:36.767Z,8.40
2023-08-20T07:09:04.829Z,8.93
2023-08-20T07:11:36.253Z,8.75
2023-08-20T07:14:09.265Z,8.32
2023-08-20T07:16:40.988Z,8.32
2023-08-20T07:19:17.471Z,7.80
2023-08-20T07:21:43.934Z,7.70
2023-08-20T07:24:13.083Z,8.82
2023-08-20T07:26:47.397Z,8.10
2023-08-20T07:29:24.693Z,8.43
2023-08-20T07:31:59.077Z,8.45
2023-08-20T07:34:53.414Z,8.70
2023-08-20T07:37:22.561Z,7.53
2023-08-20T07:39:54.629Z,7.97
2023-08-20T07:42:30.587Z,8.70
2023-08-20T07:45:05.191Z,8.02
2023-08-20T07:47:34.457Z,7.38
2023-08-20T07:50:25.891Z,7.70
2023-08-20T07:53:33.232Z,7.40
2023-08-20T07:58:52.620Z,7.60
2023-08-20T08:01:19.217Z,7.47
2023-08-20T13:10:01.947Z,4.32
2023-08-20T13:28:23.771Z,4.90
2023-08-20T20:30:18.014Z,6.65
2023-08-20T20:38:11.555Z,7.22
2023-08-20T20:44:16.058Z,7.00
2023-08-20T20:46:42.400Z,7.65
2023-08-20T20:49:08.808Z,6.63
2023-08-20T20:51:35.367Z,7.30
2023-08-20T21:16:11.900Z,6.88
2023-08-20T21:18:40.741Z,6.88
2023-08-20T21:28:50.966Z,6.20
2023-08-20T21:32:02.292Z,6.95
2023-08-20T21:42:15.120Z,6.28
2023-08-20T21:44:43.695Z,6.35
2023-08-20T22:16:03.206Z,6.82
2023-08-20T22:41:27.186Z,7.18
2023-08-20T22:49:15.690Z,6.40
2023-08-20T23:07:55.957Z,7.45
